Time;durP1;ratioP1;P1;durP2;ratioP2;P2;SDS_P1;SDS_P2;PMS_P1;PMS_P2;Temp;Humidity;BMP_temperature;BMP_pressure;BME280_temperature;BME280_humidity;BME280_pressure;Samples;Min_cycle;Max_cycle;Signal;HPM_P1;HPM_P2
2023/11/11 00:00:09;;;;;;;15.40;9.32;;;;;;;6.07;75.34;99764.03;6299179;22;20022;-90
2023/11/11 00:02:35;;;;;;;20.13;10.20;;;;;;;5.86;75.19;99717.91;6295703;22;20035;-88
2023/11/11 00:05:02;;;;;;;18.02;10.18;;;;;;;6.09;75.28;99757.28;6273069;22;20019;-89
2023/11/11 00:10:05;;;;;;;17.77;9.85;;;;;;;5.94;75.04;99715.75;6297488;22;20046;-90
2023/11/11 00:15:45;;;;;;;16.55;8.95;;;;;;;6.26;74.88;99739.88;6164211;23;20032;-87
2023/11/11 00:18:11;;;;;;;15.20;8.77;;;;;;;6.14;74.75;99717.63;6170862;23;20028;-91
2023/11/11 00:20:37;;;;;;;18.27;9.90;;;;;;;5.96;74.27;99689.13;6144855;23;20018;-86
2023/11/11 00:23:05;;;;;;;16.00;9.52;;;;;;;6.50;74.28;99754.47;6144650;23;20022;-86
2023/11/11 00:25:38;;;;;;;14.80;9.15;;;;;;;6.29;74.15;99723.84;6171343;23;20033;-87
2023/11/11 00:28:05;;;;;;;17.45;9.77;;;;;;;6.39;73.72;99720.31;6145935;23;20018;-91
2023/11/11 00:30:31;;;;;;;18.77;9.82;;;;;;;6.09;73.55;99689.41;6171109;23;20021;-88
2023/11/11 00:32:57;;;;;;;19.15;10.25;;;;;;;6.44;73.74;99760.19;6171541;23;20017;-87
2023/11/11 00:35:28;;;;;;;13.93;8.95;;;;;;;6.16;74.17;99737.16;6147187;23;20017;-87
2023/11/11 00:37:54;;;;;;;23.25;10.02;;;;;;;6.03;75.03;99739.34;6145875;23;20021;-88
2023/11/11 00:40:30;;;;;;;16.73;10.00;;;;;;;6.21;75.02;99761.59;6146367;23;20017;-88
2023/11/11 00:45:53;;;;;;;23.33;10.13;;;;;;;5.82;75.10;99703.22;6147275;23;20018;-86
2023/11/11 00:48:44;;;;;;;15.80;10.10;;;;;;;6.10;75.33;99752.66;6173001;23;20395;-90
2023/11/11 00:51:13;;;;;;;16.45;10.00;;;;;;;5.97;75.05;99724.16;6148879;22;19997;-86
2023/11/11 00:53:40;;;;;;;17.05;10.63;;;;;;;6.10;74.65;99717.38;6240770;22;20032;-91
2023/11/11 00:56:17;;;;;;;22.00;11.60;;;;;;;6.20;74.93;99735.53;6236594;23;20027;-90
2023/11/11 00:58:43;;;;;;;;;;;;;;;6.33;74.92;99745.84;6242768;22;20022;-91
2023/11/11 01:01:09;;;;;;;19.10;11.10;;;;;;;6.13;74.62;99705.16;6236313;23;19915;-89
2023/11/11 01:03:36;;;;;;;19.02;10.90;;;;;;;6.19;74.37;99704.88;6291434;22;20022;-91
2023/11/11 01:06:05;;;;;;;20.10;10.73;;;;;;;6.29;74.70;99726.56;6260411;23;20012;-87
2023/11/11 01:08:33;;;;;;;19.23;11.65;;;;;;;6.20;74.45;99700.25;6291397;22;20019;-92
2023/11/11 01:14:20;;;;;;;19.20;11.85;;;;;;;6.05;74.89;99699.16;6282167;22;20011;-92
2023/11/11 01:16:50;;;;;;;22.05;12.60;;;;;;;6.25;75.07;99728.19;6273307;22;20015;-87
2023/11/11 01:19:16;;;;;;;22.83;12.15;;;;;;;6.31;75.13;99721.66;6326312;22;20015;-89
2023/11/11 01:21:52;;;;;;;21.55;12.63;;;;;;;6.41;74.88;99739.84;6324962;22;20069;-86
2023/11/11 01:24:19;;;;;;;22.55;12.85;;;;;;;6.15;74.44;99690.19;6297354;22;20037;-87
2023/11/11 01:26:54;;;;;;;21.85;12.45;;;;;;;6.09;74.45;99680.44;6296268;22;20053;-87
2023/11/11 01:30:12;;;;;;;23.02;12.73;;;;;;;6.41;74.48;99739.84;6297955;22;20045;-92
2023/11/11 01:32:39;;;;;;;22.80;12.48;;;;;;;6.30;74.53;99717.31;6269658;22;20042;-87
2023/11/11 01:35:05;;;;;;;21.70;13.23;;;;;;;6.22;74.23;99709.72;6245482;22;20015;-92
2023/11/11 01:38:34;;;;;;;21.75;13.07;;;;;;;6.57;74.18;99735.19;6324704;22;20003;-87
2023/11/11 01:41:04;;;;;;;19.35;12.27;;;;;;;6.53;74.06;99728.69;6295634;22;20089;-92
2023/11/11 01:43:31;;;;;;;22.95;13.63;;;;;;;6.63;74.01;99736.81;6324587;22;20018;-92
2023/11/11 01:46:01;;;;;;;24.27;12.85;;;;;;;6.34;74.11;99696.69;6272428;22;20022;-89
2023/11/11 01:48:32;;;;;;;20.40;12.32;;;;;;;6.58;74.06;99725.94;6328738;22;20015;-88
2023/11/11 01:51:59;;;;;;;25.13;12.15;;;;;;;6.54;74.14;99719.44;6274988;22;20124;-88
2023/11/11 01:54:25;;;;;;;19.30;11.98;;;;;;;6.03;74.18;99643.56;6292782;22;20015;-87
2023/11/11 01:57:05;;;;;;;21.02;11.70;;;;;;;6.20;74.49;99689.41;6324291;22;20031;-91
2023/11/11 01:59:38;;;;;;;20.48;11.95;;;;;;;5.90;74.89;99650.34;6297247;22;20018;-87
2023/11/11 02:02:04;;;;;;;20.88;11.45;;;;;;;6.33;74.98;99716.78;6248052;22;20030;-88
2023/11/11 02:04:30;;;;;;;28.73;12.10;;;;;;;6.05;74.87;99676.66;6272676;22;20074;-87
2023/11/11 02:06:57;;;;;;;25.37;13.20;;;;;;;6.35;74.88;99706.44;6269080;22;20329;-85
2023/11/11 02:09:23;;;;;;;21.63;12.20;;;;;;;6.40;74.83;99707.53;6296726;22;20026;-89
2023/11/11 02:11:55;;;;;;;18.77;11.87;;;;;;;6.23;74.55;99678.78;6270528;22;20019;-92
2023/11/11 02:14:37;;;;;;;21.88;12.15;;;;;;;6.34;74.77;99699.38;6263983;22;20341;-87
2023/11/11 02:17:17;;;;;;;23.98;12.10;;;;;;;6.31;74.91;99697.22;6267595;22;20016;-91
2023/11/11 02:19:43;;;;;;;23.98;11.48;;;;;;;6.30;74.71;99717.31;6271344;22;20012;-89
2023/11/11 02:22:39;;;;;;;23.65;12.00;;;;;;;5.70;75.18;99631.38;6302846;22;20019;-87
2023/11/11 02:25:21;;;;;;;21.95;11.77;;;;;;;6.31;75.35;99718.94;6298789;22;20039;-91
2023/11/11 02:30:48;;;;;;;20.33;11.85;;;;;;;6.49;74.53;99700.44;6145871;23;20021;-85
2023/11/11 02:33:44;;;;;;;22.65;11.85;;;;;;;6.54;74.33;99708.56;6143139;23;20021;-89
2023/11/11 02:36:11;;;;;;;21.70;12.52;;;;;;;6.29;74.30;99671.44;6143990;23;20077;-87
2023/11/11 02:38:37;;;;;;;22.90;12.10;;;;;;;6.46;74.79;99709.16;6143796;23;20018;-91
2023/11/11 02:41:29;;;;;;;18.73;11.02;;;;;;;6.33;74.66;99684.19;6150017;23;20012;-92
2023/11/11 02:43:55;;;;;;;22.88;11.35;;;;;;;6.18;74.59;99659.78;6145197;23;20501;-91
2023/11/11 02:46:21;;;;;;;19.27;11.57;;;;;;;6.59;74.31;99714.81;6143720;23;20476;-90
2023/11/11 02:49:37;;;;;;;21.67;11.80;;;;;;;6.17;74.32;99668.22;6153066;23;20032;-89
2023/11/11 02:52:24;;;;;;;22.10;12.05;;;;;;;6.47;74.76;99711.56;6144984;23;20257;-89
2023/11/11 02:55:40;;;;;;;27.08;12.48;;;;;;;6.51;75.06;99717.28;6158704;23;20026;-90
2023/11/11 02:58:08;;;;;;;;;;;;;;;6.46;74.61;99711.88;6171780;23;20017;-87
2023/11/11 03:00:36;;;;;;;18.67;10.77;;;;;;;6.22;74.34;99670.91;6120782;23;19939;-88
2023/11/11 03:03:02;;;;;;;17.33;10.80;;;;;;;6.33;74.67;99713.25;6099179;23;20020;-87
2023/11/11 03:05:30;;;;;;;24.95;12.10;;;;;;;6.21;75.10;99686.38;6147692;23;20022;-93
2023/11/11 03:08:57;;;;;;;23.92;11.55;;;;;;;6.39;75.13;99712.16;6240451;22;20015;-87
2023/11/11 03:11:23;;;;;;;;;;;;;;;6.30;75.42;99711.91;6329087;22;20015;-91
2023/11/11 03:14:00;;;;;;;23.83;11.07;;;;;;;5.85;75.50;99656.56;6297074;22;20003;-87
2023/11/11 03:16:40;;;;;;;19.50;11.70;;;;;;;6.32;75.55;99719.75;6272940;22;20038;-86
2023/11/11 03:19:07;;;;;;;18.55;11.38;;;;;;;6.33;75.49;99713.25;6270418;22;20361;-85
2023/11/11 03:21:34;;;;;;;21.58;10.63;;;;;;;6.25;75.65;99711.91;6274180;22;20019;-88
2023/11/11 03:24:02;;;;;;;21.40;10.15;;;;;;;5.97;75.77;99682.66;6297382;22;20044;-86
2023/11/11 03:26:49;;;;;;;22.38;12.15;;;;;;;5.66;76.61;99641.94;6302251;22;20057;-87
2023/11/11 03:29:35;;;;;;;17.35;10.43;;;;;;;5.86;76.41;99663.63;6272799;22;20082;-88
2023/11/11 03:32:01;;;;;;;22.08;11.70;;;;;;;5.88;76.45;99663.34;6198843;23;20102;-89
2023/11/11 03:34:27;;;;;;;21.10;11.40;;;;;;;6.11;76.37;99681.78;6198492;23;20024;-89
2023/11/11 03:36:56;;;;;;;22.10;11.95;;;;;;;5.82;76.06;99640.03;6175323;23;20024;-88
2023/11/11 03:39:23;;;;;;;21.05;11.98;;;;;;;5.92;76.30;99652.75;6122025;23;20017;-90
2023/11/11 03:44:42;;;;;;;36.55;12.60;;;;;;;5.98;76.07;99655.22;6172427;23;20020;-88
2023/11/11 03:47:08;;;;;;;21.63;12.45;;;;;;;5.99;76.08;99647.88;6147726;23;20017;-88
2023/11/11 03:49:34;;;;;;;33.25;13.38;;;;;;;6.33;75.88;99711.34;6098344;23;20025;-87
2023/11/11 03:52:02;;;;;;;29.52;13.25;;;;;;;6.22;76.24;99684.47;6123393;23;20010;-88
2023/11/11 03:57:22;;;;;;;26.02;13.70;;;;;;;6.33;76.11;99696.97;6146117;23;20017;-87
2023/11/11 03:59:49;;;;;;;23.77;13.38;;;;;;;6.23;76.17;99694.28;6144701;23;20163;-88
2023/11/11 04:02:41;;;;;;;25.30;14.50;;;;;;;5.97;76.10;99648.19;6152453;23;20056;-87
2023/11/11 04:05:11;;;;;;;31.00;14.63;;;;;;;6.19;76.07;99696.72;6148083;23;20017;-86
2023/11/11 04:07:40;;;;;;;24.70;12.90;;;;;;;6.32;75.87;99720.59;6151299;23;20025;-85
2023/11/11 04:10:08;;;;;;;25.38;13.05;;;;;;;6.21;76.32;99708.09;6176858;23;20192;-89
2023/11/11 04:12:37;;;;;;;25.23;13.65;;;;;;;6.04;76.75;99689.41;6206399;23;20052;-88
2023/11/11 04:15:10;;;;;;;28.02;13.55;;;;;;;6.32;76.41;99720.59;6122328;23;20026;-86
2023/11/11 04:17:42;;;;;;;27.65;14.18;;;;;;;6.35;76.54;99714.59;6100693;23;20022;-87
2023/11/11 04:20:11;;;;;;;24.80;12.70;;;;;;;5.96;76.13;99651.16;6122786;23;20141;-90
2023/11/11 04:22:40;;;;;;;29.67;14.30;;;;;;;6.29;76.44;99717.59;6231047;23;20035;-86
2023/11/11 04:25:09;;;;;;;28.83;13.25;;;;;;;6.37;76.22;99716.22;6269095;22;20075;-85
2023/11/11 04:27:35;;;;;;;24.73;13.15;;;;;;;6.06;76.06;99673.69;6241922;23;20090;-88
2023/11/11 04:30:10;;;;;;;21.25;12.48;;;;;;;6.01;76.22;99665.53;6266998;23;20304;-92
2023/11/11 04:32:50;;;;;;;25.85;13.52;;;;;;;6.09;76.27;99681.28;6239954;23;20079;-87
2023/11/11 04:35:19;;;;;;;26.40;13.40;;;;;;;5.99;76.42;99645.16;6241562;23;20016;-86
2023/11/11 04:38:11;;;;;;;27.35;13.98;;;;;;;6.45;76.16;99708.31;6239419;23;20054;-87
2023/11/11 04:40:37;;;;;;;32.15;13.90;;;;;;;6.09;75.91;99666.88;6216784;23;20020;-86
2023/11/11 04:43:04;;;;;;;27.88;14.77;;;;;;;6.43;76.17;99712.41;6237860;23;20024;-86
2023/11/11 04:45:31;;;;;;;23.65;13.73;;;;;;;6.21;76.38;99691.00;6265376;23;20016;-86
2023/11/11 04:47:57;;;;;;;35.80;13.80;;;;;;;6.13;76.15;99665.25;6215368;23;20020;-88
2023/11/11 04:50:24;;;;;;;26.97;14.23;;;;;;;6.40;76.02;99705.63;6217634;23;20000;-89
2023/11/11 04:55:28;;;;;;;36.53;15.57;;;;;;;6.09;76.11;99659.56;6303258;22;20000;-92
2023/11/11 04:58:19;;;;;;;27.77;15.20;;;;;;;6.47;76.14;99733.31;6300320;22;20042;-85
2023/11/11 05:00:55;;;;;;;30.63;16.05;;;;;;;6.15;76.06;99682.06;6303287;22;20050;-89
2023/11/11 05:03:48;;;;;;;27.90;14.80;;;;;;;6.48;76.21;99742.25;6303782;22;20049;-85
2023/11/11 05:06:43;;;;;;;24.50;14.65;;;;;;;6.25;75.94;99702.94;6310105;22;19995;-87
2023/11/11 05:09:12;;;;;;;37.80;15.77;;;;;;;6.27;76.28;99687.19;6279092;22;20063;-89
2023/11/11 05:11:41;;;;;;;31.70;14.70;;;;;;;6.46;76.05;99709.97;6303962;22;20019;-93
2023/11/11 05:14:19;;;;;;;30.70;15.75;;;;;;;6.46;76.21;99731.69;6303983;22;20109;-90
2023/11/11 05:20:10;;;;;;;26.05;15.32;;;;;;;6.48;76.42;99729.50;6301200;22;20032;-87
2023/11/11 05:23:03;;;;;;;26.25;15.30;;;;;;;6.56;76.03;99731.66;6250541;22;20028;-88
2023/11/11 05:26:09;;;;;;;30.70;16.10;;;;;;;6.71;75.59;99733.50;6276569;22;20018;-88
2023/11/11 05:28:35;;;;;;;;;;;;;;;6.65;75.71;99731.06;6290933;22;20003;-84
2023/11/11 05:31:10;;;;;;;28.60;15.18;;;;;;;6.61;75.72;99716.44;6247299;22;19935;-87
2023/11/11 05:33:37;;;;;;;43.63;17.05;;;;;;;6.76;75.77;99729.97;6274912;22;20000;-90
2023/11/11 05:36:35;;;;;;;29.58;15.93;;;;;;;6.56;75.37;99703.69;6209886;22;20024;-92
2023/11/11 05:39:02;;;;;;;29.05;14.95;;;;;;;6.19;75.23;99642.44;6249925;22;20027;-89
2023/11/11 05:42:07;;;;;;;37.63;16.00;;;;;;;6.79;75.42;99718.56;6262441;22;20053;-87
2023/11/11 05:44:37;;;;;;;33.08;16.40;;;;;;;6.87;75.18;99725.31;6275684;22;20039;-90
2023/11/11 05:47:04;;;;;;;42.47;15.38;;;;;;;6.90;75.03;99738.34;6298901;22;20022;-90
2023/11/11 05:49:52;;;;;;;30.00;16.50;;;;;;;6.58;75.24;99679.75;6248239;22;19999;-88
2023/11/11 05:52:21;;;;;;;29.27;15.00;;;;;;;6.69;74.86;99702.25;6271556;22;20247;-88
2023/11/11 05:54:47;;;;;;;32.25;15.38;;;;;;;6.58;75.34;99705.00;6273982;22;19996;-92
2023/11/11 05:57:16;;;;;;;31.38;16.20;;;;;;;6.79;75.26;99726.69;6271245;22;20146;-86
2023/11/11 05:59:42;;;;;;;36.17;16.48;;;;;;;6.85;75.37;99716.59;6195668;22;20026;-91
2023/11/11 06:02:09;;;;;;;;;;;;;;;6.86;75.15;99740.81;6194892;22;20260;-91
2023/11/11 06:04:51;;;;;;;28.50;15.68;;;;;;;6.72;75.21;99724.28;6273830;22;19934;-91
2023/11/11 06:07:48;;;;;;;29.83;15.45;;;;;;;6.94;75.11;99747.56;6299114;22;20030;-90
2023/11/11 06:10:23;;;;;;;33.53;16.88;;;;;;;6.87;75.12;99738.88;6253918;22;20484;-86
2023/11/11 06:13:47;;;;;;;31.15;17.13;;;;;;;7.06;75.00;99753.50;6270304;22;20022;-91
2023/11/11 06:16:15;;;;;;;35.88;17.15;;;;;;;6.65;74.78;99684.91;6274457;22;20019;-92
2023/11/11 06:26:21;;;;;;;28.75;16.55;;;;;;;6.66;75.36;99735.44;6294762;22;20027;-90
2023/11/11 06:29:35;;;;;;;36.53;17.38;;;;;;;7.05;75.20;99770.88;6282155;22;20015;-94
2023/11/11 06:32:40;;;;;;;34.35;17.52;;;;;;;6.74;75.02;99727.50;6335310;22;20019;-90
2023/11/11 06:35:46;;;;;;;35.67;16.65;;;;;;;6.97;74.70;99764.13;6311396;22;20007;-88
2023/11/11 06:44:12;;;;;;;29.67;16.73;;;;;;;7.26;74.16;99756.09;6302745;22;20008;-87
2023/11/11 07:13:15;;;;;;;29.80;16.48;;;;;;;7.31;72.08;99670.94;6314738;22;20026;-86
2023/11/11 07:16:43;;;;;;;;;;;;;;;7.83;72.37;99740.22;6293113;22;20026;-90
2023/11/11 07:29:14;;;;;;;41.45;17.00;;;;;;;7.99;71.63;99749.88;6286034;22;20019;-88
2023/11/11 07:41:23;;;;;;;32.60;18.38;;;;;;;8.24;70.61;99743.41;6292379;22;20092;-91
2023/11/11 07:44:06;;;;;;;39.95;17.70;;;;;;;7.89;70.66;99697.44;6269835;22;20011;-89
2023/11/11 08:08:40;;;;;;;36.28;16.52;;;;;;;8.20;69.08;99687.06;6324006;22;20007;-90
2023/11/11 08:12:29;;;;;;;36.00;17.35;;;;;;;8.59;68.95;99743.38;6160197;23;20514;-89
2023/11/11 08:27:40;;;;;;;37.80;17.35;;;;;;;8.44;68.26;99714.34;6294848;22;20004;-92
2023/11/11 08:31:16;;;;;;;39.70;17.17;;;;;;;8.69;68.63;99754.16;6266335;22;20011;-93
2023/11/11 08:48:26;;;;;;;34.95;16.70;;;;;;;8.31;68.02;99666.81;6289083;22;20027;-92
2023/11/11 09:23:36;;;;;;;32.30;15.18;;;;;;;8.68;67.10;99657.97;6304541;22;20062;-90
2023/11/11 09:26:52;;;;;;;32.10;16.13;;;;;;;8.58;67.40;99649.09;6278816;22;20079;-91
2023/11/11 09:30:06;;;;;;;40.58;16.23;;;;;;;8.53;67.50;99606.38;6079790;23;20022;-90
2023/11/11 09:32:35;;;;;;;39.42;15.27;;;;;;;9.01;66.77;99668.97;6089891;23;20006;-91
2023/11/11 09:35:25;;;;;;;36.97;15.50;;;;;;;9.34;66.54;99704.53;6069332;23;20015;-91
2023/11/11 09:38:27;;;;;;;31.63;15.55;;;;;;;8.87;66.21;99614.38;6065204;23;20023;-93
2023/11/11 09:41:00;;;;;;;35.20;15.05;;;;;;;8.95;66.03;99629.25;6026462;23;20012;-91
2023/11/11 09:43:27;;;;;;;32.80;16.35;;;;;;;8.89;66.35;99617.59;6036484;23;20023;-89
2023/11/11 09:46:26;;;;;;;;;;;;;;;9.41;66.13;99691.31;6001403;23;20004;-90
2023/11/11 10:00:56;;;;;;;36.97;16.48;;;;;;;9.48;65.73;99686.28;6314937;22;20010;-92
2023/11/11 10:18:19;;;;;;;27.83;15.55;;;;;;;9.61;66.04;99677.34;6309335;22;20019;-89
2023/11/11 10:21:20;;;;;;;34.17;16.15;;;;;;;9.82;65.17;99680.56;6256779;22;19999;-89
2023/11/11 10:24:00;;;;;;;35.05;16.02;;;;;;;9.49;65.26;99636.06;6289503;22;20001;-90
2023/11/11 10:41:54;;;;;;;31.00;15.45;;;;;;;9.75;64.78;99662.94;6304393;22;20058;-90
2023/11/11 10:53:18;;;;;;;36.22;18.35;;;;;;;9.55;65.23;99623.97;6244819;22;20000;-89
2023/11/11 10:56:16;;;;;;;34.75;17.52;;;;;;;9.83;64.38;99656.78;6225553;23;20016;-88
2023/11/11 10:59:26;;;;;;;105.07;46.05;;;;;;;9.69;64.11;99615.00;6224389;23;20020;-93
2023/11/11 11:01:57;;;;;;;63.25;29.48;;;;;;;10.07;64.00;99654.72;6196109;23;20020;-92
2023/11/11 11:04:30;;;;;;;64.15;25.05;;;;;;;9.96;63.77;99625.16;6235100;23;20016;-91
2023/11/11 11:07:09;;;;;;;43.92;20.42;;;;;;;9.97;63.10;99613.94;6170151;23;20101;-91
2023/11/11 11:10:09;;;;;;;69.63;32.70;;;;;;;10.16;63.54;99654.00;6217395;23;20055;-90
2023/11/11 11:12:38;;;;;;;40.72;21.23;;;;;;;10.08;63.42;99655.53;6244843;22;20049;-91
2023/11/11 11:15:44;;;;;;;34.90;17.13;;;;;;;9.95;63.90;99635.28;6248379;23;20047;-89
2023/11/11 11:22:15;;;;;;;30.05;15.25;;;;;;;9.62;63.51;99563.53;6214900;23;20035;-90
2023/11/11 11:29:21;;;;;;;31.42;13.02;;;;;;;9.80;63.38;99594.59;6247592;23;20039;-87
2023/11/11 11:32:22;;;;;;;29.00;13.77;;;;;;;10.17;63.43;99642.81;6243963;23;20020;-88
2023/11/11 11:35:40;;;;;;;36.15;14.07;;;;;;;10.25;63.36;99630.34;6246430;22;20053;-90
2023/11/11 11:39:07;;;;;;;27.60;13.10;;;;;;;9.58;63.43;99568.78;6126757;23;20029;-93
2023/11/11 11:42:53;;;;;;;25.50;12.98;;;;;;;9.50;63.94;99535.88;6150951;23;20101;-89
2023/11/11 11:49:27;;;;;;;30.17;14.20;;;;;;;10.35;63.10;99635.66;6130358;23;20101;-89
2023/11/11 11:52:27;;;;;;;23.63;13.27;;;;;;;10.25;63.35;99628.44;6128640;23;20002;-89
2023/11/11 11:55:43;;;;;;;27.90;13.15;;;;;;;10.11;62.86;99611.22;6128429;23;20079;-89
2023/11/11 11:58:15;;;;;;;31.50;13.23;;;;;;;9.89;63.08;99606.44;6150996;23;20025;-90
2023/11/11 12:01:31;;;;;;;29.00;14.75;;;;;;;10.11;63.58;99635.81;6141758;23;20026;-89
2023/11/11 12:08:31;;;;;;;32.90;14.85;;;;;;;10.09;63.49;99632.56;6089780;23;20026;-89
2023/11/11 12:11:29;;;;;;;29.52;12.85;;;;;;;9.92;63.28;99624.16;6145139;22;20483;-90
2023/11/11 12:14:09;;;;;;;31.77;14.77;;;;;;;9.49;63.60;99572.47;6218343;23;20476;-88
2023/11/11 12:17:11;;;;;;;39.53;17.60;;;;;;;9.84;63.73;99623.72;6269114;22;20011;-88
2023/11/11 12:19:38;;;;;;;35.58;18.40;;;;;;;9.31;63.99;99558.59;6217888;23;20063;-85
2023/11/11 12:22:13;;;;;;;37.90;15.98;;;;;;;9.77;63.91;99611.59;6240306;23;20035;-90
2023/11/11 12:24:42;;;;;;;35.45;19.63;;;;;;;9.85;63.75;99625.34;6239381;23;20072;-88
2023/11/11 12:27:09;;;;;;;39.33;18.50;;;;;;;9.66;63.22;99591.81;6263710;23;20030;-89
2023/11/11 12:29:43;;;;;;;38.70;16.73;;;;;;;9.63;63.46;99579.63;6166198;23;20020;-88
2023/11/11 12:32:30;;;;;;;30.92;14.80;;;;;;;9.65;63.80;99595.69;6226897;22;20019;-89
2023/11/11 12:35:48;;;;;;;30.90;14.23;;;;;;;9.63;63.85;99587.81;6269716;22;20024;-87
2023/11/11 12:38:51;;;;;;;27.50;13.95;;;;;;;9.75;64.47;99616.53;6266142;23;20032;-89
2023/11/11 12:41:17;;;;;;;27.17;14.38;;;;;;;9.55;64.35;99591.19;6213108;23;20027;-88
2023/11/11 12:43:45;;;;;;;36.75;14.82;;;;;;;9.72;64.69;99619.84;6268702;23;20035;-88
2023/11/11 12:46:16;;;;;;;27.17;14.57;;;;;;;9.59;64.49;99603.13;6194760;23;20026;-88
2023/11/11 12:48:44;;;;;;;26.70;13.65;;;;;;;9.59;64.82;99619.50;6215256;23;20035;-88
2023/11/11 12:52:29;;;;;;;26.80;14.43;;;;;;;9.37;65.34;99584.69;6216108;23;20038;-88
2023/11/11 12:54:57;;;;;;;33.78;15.25;;;;;;;9.41;65.14;99599.34;6193051;23;20051;-89
2023/11/11 12:57:31;;;;;;;33.83;16.08;;;;;;;9.38;65.10;99599.13;6236855;23;20038;-88
2023/11/11 13:00:06;;;;;;;40.75;15.65;;;;;;;9.08;65.08;99548.63;6240204;22;20020;-91
2023/11/11 13:03:46;;;;;;;46.83;16.27;;;;;;;9.04;65.09;99550.31;6254018;22;20017;-89
2023/11/11 13:06:53;;;;;;;29.50;15.13;;;;;;;9.14;65.13;99586.44;6272645;22;20035;-89
2023/11/11 13:10:46;;;;;;;57.17;19.00;;;;;;;9.07;65.28;99574.25;6242247;22;20004;-89
2023/11/11 13:14:29;;;;;;;47.67;17.55;;;;;;;9.20;65.41;99606.22;6281504;22;20102;31
2023/11/11 13:17:32;;;;;;;36.63;18.75;;;;;;;8.95;65.74;99566.53;6255693;22;20083;-89
2023/11/11 13:23:11;;;;;;;42.50;19.98;;;;;;;8.86;65.60;99543.78;6285502;22;20008;-89
2023/11/11 13:26:21;;;;;;;64.87;23.20;;;;;;;8.93;65.42;99568.75;6300802;22;20020;-90
2023/11/11 13:32:32;;;;;;;27.25;14.80;;;;;;;8.85;65.92;99589.31;6231867;22;20026;-88
2023/11/11 13:35:26;;;;;;;37.92;16.45;;;;;;;8.60;65.49;99541.41;6277210;22;20054;-90
2023/11/11 13:41:41;;;;;;;39.80;18.35;;;;;;;8.63;65.20;99549.00;6205835;23;20121;-88
2023/11/11 13:44:09;;;;;;;40.08;17.95;;;;;;;8.69;65.27;99553.28;6182927;23;20052;-88
2023/11/11 13:46:40;;;;;;;37.70;17.23;;;;;;;8.78;65.04;99571.72;6180746;23;20017;-90
2023/11/11 13:49:51;;;;;;;43.58;21.58;;;;;;;8.93;64.89;99591.34;6182604;23;20013;-90
2023/11/11 13:52:47;;;;;;;69.65;39.20;;;;;;;8.84;64.94;99587.69;6211096;23;20012;-89
2023/11/11 13:55:28;;;;;;;58.15;28.48;;;;;;;8.49;65.34;99545.38;6185396;23;20040;-91
2023/11/11 13:58:41;;;;;;;47.78;22.08;;;;;;;8.75;65.15;99586.72;6157757;23;20021;-87
2023/11/11 14:01:37;;;;;;;58.60;26.23;;;;;;;8.48;65.27;99562.84;6299219;22;20042;-91
2023/11/11 14:07:42;;;;;;;58.45;25.55;;;;;;;8.40;66.86;99582.56;6299411;22;20008;-90
2023/11/11 14:10:12;;;;;;;46.05;21.35;;;;;;;7.96;66.70;99515.53;6242160;23;20450;-87
2023/11/11 14:12:44;;;;;;;45.63;20.85;;;;;;;8.25;66.64;99550.84;6192793;23;20106;-91
2023/11/11 14:18:19;;;;;;;74.15;33.72;;;;;;;8.12;67.07;99548.84;6305761;22;20031;-88
2023/11/11 14:21:17;;;;;;;109.70;45.88;;;;;;;8.30;66.91;99593.56;6252020;22;20011;-88
2023/11/11 14:23:44;;;;;;;117.15;52.58;;;;;;;8.05;66.88;99551.91;6280280;22;20046;-89
2023/11/11 14:26:14;;;;;;;92.18;42.30;;;;;;;8.09;67.13;99563.03;6300713;22;20050;-91
2023/11/11 14:28:49;;;;;;;55.22;27.90;;;;;;;8.20;67.09;99586.31;6212448;23;20016;-87
2023/11/11 14:31:18;;;;;;;61.13;21.90;;;;;;;8.03;67.20;99569.63;6219597;23;20024;-89
2023/11/11 14:33:47;;;;;;;46.40;20.67;;;;;;;7.93;67.42;99565.91;6239186;23;20008;-90
2023/11/11 14:36:16;;;;;;;40.03;18.95;;;;;;;7.83;67.36;99548.91;6245945;22;20016;-89
2023/11/11 14:38:46;;;;;;;38.00;18.67;;;;;;;8.08;67.49;99594.06;6248418;22;20030;-91
2023/11/11 14:41:24;;;;;;;37.67;18.15;;;;;;;7.53;68.00;99526.34;6273342;22;20020;-90
2023/11/11 14:43:54;;;;;;;39.35;18.02;;;;;;;7.38;68.15;99502.00;6173365;22;20026;-88
2023/11/11 14:46:36;;;;;;;46.17;22.40;;;;;;;7.31;67.94;99521.38;6228645;22;20027;-88
2023/11/11 14:49:10;;;;;;;53.42;21.95;;;;;;;7.24;67.99;99521.72;6298285;22;20062;-89
2023/11/11 14:51:50;;;;;;;36.47;19.48;;;;;;;7.79;67.78;99594.94;6202547;22;20071;-89
2023/11/11 14:54:50;;;;;;;37.53;17.92;;;;;;;7.48;67.71;99557.13;6297993;22;20019;-88
2023/11/11 14:57:24;;;;;;;32.88;17.55;;;;;;;7.39;67.92;99547.97;6247781;22;20020;-88
2023/11/11 15:00:04;;;;;;;38.22;18.05;;;;;;;7.18;68.25;99525.56;6290032;22;20015;-89
2023/11/11 15:02:57;;;;;;;34.40;18.35;;;;;;;7.59;67.89;99584.25;6249107;22;20022;-88
2023/11/11 15:06:10;;;;;;;37.65;18.95;;;;;;;7.33;67.66;99548.31;6263385;22;19996;-87
2023/11/11 15:08:37;;;;;;;41.30;19.00;;;;;;;7.34;67.97;99561.59;6278813;22;20018;-88
2023/11/11 15:11:04;;;;;;;40.00;19.45;;;;;;;7.42;68.07;99596.34;6305115;22;20019;-90
2023/11/11 15:13:57;;;;;;;35.90;18.95;;;;;;;7.42;67.83;99593.66;6281223;22;20022;-85
2023/11/11 15:16:29;;;;;;;44.15;19.40;;;;;;;7.21;67.89;99565.78;6304416;22;20003;-87
2023/11/11 15:19:06;;;;;;;42.22;19.60;;;;;;;7.25;67.59;99575.03;6298245;22;20035;-88
2023/11/11 15:45:43;;;;;;;35.05;18.05;;;;;;;7.06;68.82;99565.91;6306235;22;20043;-91
2023/11/11 15:48:46;;;;;;;42.75;19.30;;;;;;;6.71;68.46;99520.78;6294207;22;20038;-91
2023/11/11 16:16:44;;;;;;;29.40;15.68;;;;;;;6.96;67.21;99568.72;6311364;22;20046;-91
2023/11/11 16:29:37;;;;;;;46.13;16.25;;;;;;;7.18;66.32;99588.09;6308649;22;20019;-87
2023/11/11 16:35:18;;;;;;;36.17;14.83;;;;;;;6.89;66.75;99558.16;6295029;22;20712;-87
2023/11/11 16:37:44;;;;;;;37.30;15.27;;;;;;;7.01;67.06;99572.19;6243230;22;20258;-89
2023/11/11 16:40:14;;;;;;;38.40;14.45;;;;;;;6.92;66.90;99554.06;6263924;22;20451;-87
2023/11/11 16:46:09;;;;;;;25.95;14.27;;;;;;;6.93;67.13;99551.06;6325752;22;20031;-90
2023/11/11 16:49:02;;;;;;;24.95;13.48;;;;;;;6.85;66.48;99564.44;6302982;22;20391;-89
2023/11/11 16:52:02;;;;;;;28.00;15.13;;;;;;;6.84;66.68;99552.75;6302408;22;20019;-86
2023/11/11 16:54:53;;;;;;;71.35;19.08;;;;;;;6.95;66.79;99581.47;6328429;22;20019;-85
2023/11/11 16:57:30;;;;;;;51.50;24.27;;;;;;;6.82;66.60;99569.34;6324151;22;20022;-86
2023/11/11 17:00:00;;;;;;;43.10;20.33;;;;;;;6.41;66.50;99495.44;6263972;22;20019;-87
2023/11/11 17:03:03;;;;;;;33.45;16.38;;;;;;;7.07;66.59;99592.00;6277646;22;20027;-87
2023/11/11 17:05:52;;;;;;;24.25;13.05;;;;;;;6.49;66.60;99485.88;6321170;22;20072;-88
2023/11/11 17:08:28;;;;;;;31.15;14.00;;;;;;;6.85;66.35;99542.69;6173067;23;20013;-91
2023/11/11 17:13:51;;;;;;;42.67;20.27;;;;;;;6.45;65.95;99482.13;6273511;22;20051;-90
2023/11/11 17:19:13;;;;;;;30.60;15.93;;;;;;;6.99;66.11;99587.19;6289411;22;20015;-91
2023/11/11 17:28:18;;;;;;;31.67;17.00;;;;;;;7.06;64.94;99574.88;6266631;23;20026;-92
2023/11/11 17:31:12;;;;;;;33.35;16.67;;;;;;;7.02;65.44;99567.59;6267546;23;20024;-91
2023/11/11 17:34:09;;;;;;;34.22;17.45;;;;;;;6.87;65.92;99564.97;6214824;23;20024;-91
2023/11/11 17:37:53;;;;;;;38.20;17.67;;;;;;;6.64;65.93;99531.16;6252130;22;20043;-92
2023/11/11 17:40:34;;;;;;;35.45;18.25;;;;;;;6.31;65.58;99487.34;6247369;23;20016;-86
2023/11/11 17:43:16;;;;;;;42.47;19.25;;;;;;;6.60;65.39;99514.63;6236572;23;20042;-88
2023/11/11 17:46:21;;;;;;;36.10;18.40;;;;;;;6.83;65.79;99553.84;6232647;23;20024;-88
2023/11/11 17:48:51;;;;;;;40.05;18.50;;;;;;;6.49;65.68;99491.31;6258902;23;20078;-90
2023/11/11 17:51:20;;;;;;;38.28;18.25;;;;;;;6.68;65.31;99522.16;6258504;23;20042;-87
2023/11/11 17:53:47;;;;;;;32.33;17.20;;;;;;;6.87;65.17;99549.47;6258767;23;20020;-88
2023/11/11 17:56:36;;;;;;;35.10;18.73;;;;;;;6.74;65.74;99550.91;6263701;23;20024;-87
2023/11/11 17:59:32;;;;;;;32.33;16.77;;;;;;;6.45;65.22;99485.63;6261736;23;20077;-87
2023/11/11 18:05:43;;;;;;;37.35;17.23;;;;;;;6.93;65.30;99540.19;6201093;23;19963;-88